KVDI/VDI METAR and TAF weather

Enter ICAO airport designator
Station Type Date Time Source
KVDI METAR 2019/12/09 13:55 UTC NOAA

KVDI 091355Z AUTO 13003KT 2SM BR OVC002 12/10 A3012 RMK AO2


Station Type Date Time Source
KVDI Decoded METAR 2019/12/09 13:55 UTC NOAA

Vidalia, Vidalia Municipal Airport, GA, United States (KVDI) 32-11-33N 082-22-19W
Dec 09, 2019 - 08:55 AM EST / 2019.12.09 1355 UTC
Wind: from the SE (130 degrees) at 3 MPH (3 KT):0
Visibility: 2 mile(s):0
Sky conditions: overcast
Weather: mist
Temperature: 53 F (12 C)
Dew Point: 50 F (10 C)
Relative Humidity: 87%
Pressure (altimeter): 30.12 in. Hg (1019 hPa)
ob: KVDI 091355Z AUTO 13003KT 2SM BR OVC002 12/10 A3012 RMK AO2
cycle: 14

Station Type Date Time Source
KVDI TAF UTC NOAA

Error!

Example: see airport list